sensor_id;sensor_type;location;lat;lon;timestamp;pressure;altitude;pressure_sealevel;temperature;humidity
26807;BME280;14380;49.910;6.792;2023-05-02T00:00:39;99047.81;;;9.00;100.00
26807;BME280;14380;49.910;6.792;2023-05-02T00:03:06;99048.31;;;8.89;100.00
26807;BME280;14380;49.910;6.792;2023-05-02T00:05:33;99050.75;;;8.73;100.00
26807;BME280;14380;49.910;6.792;2023-05-02T00:08:01;99055.63;;;8.83;100.00
26807;BME280;14380;49.910;6.792;2023-05-02T00:10:27;99058.38;;;8.80;100.00
26807;BME280;14380;49.910;6.792;2023-05-02T00:12:54;99060.69;;;8.87;100.00
26807;BME280;14380;49.910;6.792;2023-05-02T00:15:20;99061.66;;;8.85;100.00
26807;BME280;14380;49.910;6.792;2023-05-02T00:17:47;99054.97;;;8.77;100.00
26807;BME280;14380;49.910;6.792;2023-05-02T00:20:14;99053.91;;;8.82;100.00
26807;BME280;14380;49.910;6.792;2023-05-02T00:22:40;99057.00;;;8.71;100.00
26807;BME280;14380;49.910;6.792;2023-05-02T00:25:09;99056.00;;;8.53;100.00
26807;BME280;14380;49.910;6.792;2023-05-02T00:27:40;99056.75;;;8.56;100.00
26807;BME280;14380;49.910;6.792;2023-05-02T00:30:08;99053.97;;;8.59;100.00
26807;BME280;14380;49.910;6.792;2023-05-02T00:32:34;99068.66;;;8.65;100.00
26807;BME280;14380;49.910;6.792;2023-05-02T00:35:02;99061.59;;;8.43;100.00
26807;BME280;14380;49.910;6.792;2023-05-02T00:37:29;99065.72;;;8.51;100.00
26807;BME280;14380;49.910;6.792;2023-05-02T00:39:55;99061.91;;;8.58;100.00
26807;BME280;14380;49.910;6.792;2023-05-02T00:42:23;99064.09;;;8.26;100.00
26807;BME280;14380;49.910;6.792;2023-05-02T00:44:50;99065.69;;;8.30;100.00
26807;BME280;14380;49.910;6.792;2023-05-02T00:47:16;99064.78;;;8.09;100.00
26807;BME280;14380;49.910;6.792;2023-05-02T00:49:43;99062.19;;;8.07;100.00
26807;BME280;14380;49.910;6.792;2023-05-02T00:52:09;99064.13;;;8.24;100.00
26807;BME280;14380;49.910;6.792;2023-05-02T00:54:37;99059.63;;;8.28;100.00
26807;BME280;14380;49.910;6.792;2023-05-02T00:57:04;99065.50;;;8.12;100.00
26807;BME280;14380;49.910;6.792;2023-05-02T00:59:32;99058.75;;;8.27;100.00
26807;BME280;14380;49.910;6.792;2023-05-02T01:02:08;99064.75;;;8.31;100.00
26807;BME280;14380;49.910;6.792;2023-05-02T01:04:42;99060.28;;;8.33;100.00
26807;BME280;14380;49.910;6.792;2023-05-02T01:07:34;99066.66;;;8.27;100.00
26807;BME280;14380;49.910;6.792;2023-05-02T01:10:16;99061.03;;;8.14;100.00
26807;BME280;14380;49.910;6.792;2023-05-02T01:12:47;99067.41;;;8.09;100.00
26807;BME280;14380;49.910;6.792;2023-05-02T01:15:21;99067.66;;;8.02;100.00
26807;BME280;14380;49.910;6.792;2023-05-02T01:17:49;99066.66;;;8.05;100.00
26807;BME280;14380;49.910;6.792;2023-05-02T01:20:19;99067.41;;;8.09;100.00
26807;BME280;14380;49.910;6.792;2023-05-02T01:22:47;99066.41;;;7.89;100.00
26807;BME280;14380;49.910;6.792;2023-05-02T01:25:21;99066.53;;;7.86;100.00
26807;BME280;14380;49.910;6.792;2023-05-02T01:27:59;99067.97;;;7.95;100.00
26807;BME280;14380;49.910;6.792;2023-05-02T01:30:31;99068.25;;;7.87;100.00
26807;BME280;14380;49.910;6.792;2023-05-02T01:33:01;99072.22;;;7.97;100.00
26807;BME280;14380;49.910;6.792;2023-05-02T01:35:29;99077.03;;;7.86;100.00
26807;BME280;14380;49.910;6.792;2023-05-02T01:37:58;99083.44;;;7.79;100.00
26807;BME280;14380;49.910;6.792;2023-05-02T01:40:25;99097.19;;;7.63;100.00
26807;BME280;14380;49.910;6.792;2023-05-02T01:42:53;99097.19;;;7.63;100.00
26807;BME280;14380;49.910;6.792;2023-05-02T01:45:22;99096.34;;;7.63;100.00
26807;BME280;14380;49.910;6.792;2023-05-02T01:47:51;99102.56;;;7.60;100.00
26807;BME280;14380;49.910;6.792;2023-05-02T01:50:23;99096.28;;;7.64;100.00
26807;BME280;14380;49.910;6.792;2023-05-02T01:52:52;99107.03;;;7.58;100.00
26807;BME280;14380;49.910;6.792;2023-05-02T01:55:21;99116.28;;;7.68;100.00
26807;BME280;14380;49.910;6.792;2023-05-02T01:57:50;99110.38;;;7.62;100.00
26807;BME280;14380;49.910;6.792;2023-05-02T02:00:20;99114.50;;;7.69;100.00
26807;BME280;14380;49.910;6.792;2023-05-02T02:02:48;99123.72;;;7.57;100.00
26807;BME280;14380;49.910;6.792;2023-05-02T02:05:18;99126.63;;;7.73;100.00
26807;BME280;14380;49.910;6.792;2023-05-02T02:07:45;99133.81;;;7.68;100.00
26807;BME280;14380;49.910;6.792;2023-05-02T02:10:12;99140.47;;;7.77;100.00
26807;BME280;14380;49.910;6.792;2023-05-02T02:12:41;99135.13;;;7.80;100.00
26807;BME280;14380;49.910;6.792;2023-05-02T02:15:12;99140.56;;;7.75;100.00
26807;BME280;14380;49.910;6.792;2023-05-02T02:17:45;99147.13;;;7.63;100.00
26807;BME280;14380;49.910;6.792;2023-05-02T02:20:14;99148.41;;;7.51;100.00
26807;BME280;14380;49.910;6.792;2023-05-02T02:22:43;99151.84;;;7.53;100.00
26807;BME280;14380;49.910;6.792;2023-05-02T02:25:12;99155.75;;;7.67;100.00
26807;BME280;14380;49.910;6.792;2023-05-02T02:27:39;99165.06;;;7.76;100.00
26807;BME280;14380;49.910;6.792;2023-05-02T02:30:07;99166.09;;;7.71;100.00
26807;BME280;14380;49.910;6.792;2023-05-02T02:32:34;99170.91;;;7.35;100.00
26807;BME280;14380;49.910;6.792;2023-05-02T02:35:16;99176.97;;;7.37;100.00
26807;BME280;14380;49.910;6.792;2023-05-02T02:37:49;99178.63;;;7.39;100.00
26807;BME280;14380;49.910;6.792;2023-05-02T02:40:22;99170.13;;;7.56;100.00
26807;BME280;14380;49.910;6.792;2023-05-02T02:42:59;99179.84;;;7.54;100.00
26807;BME280;14380;49.910;6.792;2023-05-02T02:45:35;99181.63;;;7.54;100.00
26807;BME280;14380;49.910;6.792;2023-05-02T02:48:10;99183.25;;;7.33;100.00
26807;BME280;14380;49.910;6.792;2023-05-02T02:50:53;99186.34;;;7.44;100.00
26807;BME280;14380;49.910;6.792;2023-05-02T02:53:30;99195.09;;;7.44;100.00
26807;BME280;14380;49.910;6.792;2023-05-02T02:56:04;99185.44;;;7.45;100.00
26807;BME280;14380;49.910;6.792;2023-05-02T02:58:38;99189.63;;;7.51;100.00
26807;BME280;14380;49.910;6.792;2023-05-02T03:01:14;99190.13;;;7.61;100.00
26807;BME280;14380;49.910;6.792;2023-05-02T03:03:44;99191.53;;;7.46;100.00
26807;BME280;14380;49.910;6.792;2023-05-02T03:06:12;99202.56;;;7.55;100.00
26807;BME280;14380;49.910;6.792;2023-05-02T03:08:40;99191.25;;;7.53;100.00
26807;BME280;14380;49.910;6.792;2023-05-02T03:11:08;99191.63;;;7.44;100.00
26807;BME280;14380;49.910;6.792;2023-05-02T03:13:35;99200.94;;;7.53;100.00
26807;BME280;14380;49.910;6.792;2023-05-02T03:16:22;99197.22;;;7.33;100.00
26807;BME280;14380;49.910;6.792;2023-05-02T03:18:52;99201.91;;;7.25;100.00
26807;BME280;14380;49.910;6.792;2023-05-02T03:21:19;99205.34;;;7.27;100.00
26807;BME280;14380;49.910;6.792;2023-05-02T03:23:47;99201.09;;;7.23;100.00
26807;BME280;14380;49.910;6.792;2023-05-02T03:26:13;99201.81;;;7.28;100.00
26807;BME280;14380;49.910;6.792;2023-05-02T03:28:40;99201.03;;;7.24;100.00
26807;BME280;14380;49.910;6.792;2023-05-02T03:31:07;99206.00;;;7.32;100.00
26807;BME280;14380;49.910;6.792;2023-05-02T03:33:33;99211.81;;;7.17;100.00
26807;BME280;14380;49.910;6.792;2023-05-02T03:36:00;99214.47;;;7.15;100.00
26807;BME280;14380;49.910;6.792;2023-05-02T03:38:28;99217.16;;;7.13;100.00
26807;BME280;14380;49.910;6.792;2023-05-02T03:40:57;99217.09;;;7.15;100.00
26807;BME280;14380;49.910;6.792;2023-05-02T03:43:23;99218.72;;;7.19;100.00
26807;BME280;14380;49.910;6.792;2023-05-02T03:45:50;99214.34;;;7.20;100.00
26807;BME280;14380;49.910;6.792;2023-05-02T03:48:16;99216.69;;;7.27;100.00
26807;BME280;14380;49.910;6.792;2023-05-02T03:50:43;99213.09;;;7.05;100.00
26807;BME280;14380;49.910;6.792;2023-05-02T03:53:09;99210.22;;;7.11;100.00
26807;BME280;14380;49.910;6.792;2023-05-02T03:55:38;99212.94;;;7.09;100.00
26807;BME280;14380;49.910;6.792;2023-05-02T03:58:06;99214.53;;;7.13;100.00
26807;BME280;14380;49.910;6.792;2023-05-02T04:00:32;99215.34;;;7.16;100.00
26807;BME280;14380;49.910;6.792;2023-05-02T04:03:00;99217.97;;;7.16;100.00
26807;BME280;14380;49.910;6.792;2023-05-02T04:05:26;99210.13;;;7.14;100.00
26807;BME280;14380;49.910;6.792;2023-05-02T04:07:54;99209.69;;;7.28;100.00
26807;BME280;14380;49.910;6.792;2023-05-02T04:10:20;99210.72;;;7.22;100.00
26807;BME280;14380;49.910;6.792;2023-05-02T04:12:47;99211.50;;;7.26;100.00
26807;BME280;14380;49.910;6.792;2023-05-02T04:15:15;99215.78;;;7.28;100.00
26807;BME280;14380;49.910;6.792;2023-05-02T04:17:41;99213.88;;;7.32;100.00
26807;BME280;14380;49.910;6.792;2023-05-02T04:20:08;99213.06;;;7.32;100.00
26807;BME280;14380;49.910;6.792;2023-05-02T04:22:35;99220.41;;;7.47;100.00
26807;BME280;14380;49.910;6.792;2023-05-02T04:25:04;99220.03;;;7.58;100.00
26807;BME280;14380;49.910;6.792;2023-05-02T04:27:30;99218.38;;;7.79;100.00
26807;BME280;14380;49.910;6.792;2023-05-02T04:29:57;99223.78;;;7.74;100.00
26807;BME280;14380;49.910;6.792;2023-05-02T04:32:25;99227.41;;;7.72;100.00
26807;BME280;14380;49.910;6.792;2023-05-02T04:34:52;99235.19;;;7.75;100.00
26807;BME280;14380;49.910;6.792;2023-05-02T04:37:18;99233.13;;;7.83;100.00
26807;BME280;14380;49.910;6.792;2023-05-02T04:39:45;99234.44;;;7.95;100.00
26807;BME280;14380;49.910;6.792;2023-05-02T04:42:11;99229.53;;;8.10;100.00
26807;BME280;14380;49.910;6.792;2023-05-02T04:44:38;99245.38;;;8.08;100.00
26807;BME280;14380;49.910;6.792;2023-05-02T04:47:05;99243.00;;;8.24;100.00
26807;BME280;14380;49.910;6.792;2023-05-02T04:49:33;99246.06;;;8.37;100.00
26807;BME280;14380;49.910;6.792;2023-05-02T04:51:59;99254.34;;;8.26;100.00
26807;BME280;14380;49.910;6.792;2023-05-02T04:54:26;99249.75;;;8.31;100.00
26807;BME280;14380;49.910;6.792;2023-05-02T04:56:53;99252.34;;;8.33;100.00
26807;BME280;14380;49.910;6.792;2023-05-02T04:59:19;99263.19;;;8.47;100.00
26807;BME280;14380;49.910;6.792;2023-05-02T05:01:46;99254.16;;;8.55;100.00
26807;BME280;14380;49.910;6.792;2023-05-02T05:04:13;99259.41;;;8.56;100.00
26807;BME280;14380;49.910;6.792;2023-05-02T05:06:41;99259.97;;;8.39;100.00
26807;BME280;14380;49.910;6.792;2023-05-02T05:09:07;99265.13;;;8.42;100.00
26807;BME280;14380;49.910;6.792;2023-05-02T05:11:34;99271.63;;;8.57;100.00
26807;BME280;14380;49.910;6.792;2023-05-02T05:14:02;99278.44;;;8.63;100.00
26807;BME280;14380;49.910;6.792;2023-05-02T05:16:29;99276.41;;;8.70;100.00
26807;BME280;14380;49.910;6.792;2023-05-02T05:18:56;99289.09;;;8.82;100.00
26807;BME280;14380;49.910;6.792;2023-05-02T05:21:22;99288.28;;;8.80;100.00
26807;BME280;14380;49.910;6.792;2023-05-02T05:23:50;99287.31;;;9.05;100.00
26807;BME280;14380;49.910;6.792;2023-05-02T05:26:17;99283.31;;;9.17;100.00
26807;BME280;14380;49.910;6.792;2023-05-02T05:28:44;99294.13;;;9.31;100.00
26807;BME280;14380;49.910;6.792;2023-05-02T05:31:12;99287.47;;;9.22;100.00
26807;BME280;14380;49.910;6.792;2023-05-02T05:33:40;99298.34;;;9.15;100.00
26807;BME280;14380;49.910;6.792;2023-05-02T05:36:08;99295.63;;;9.16;100.00
26807;BME280;14380;49.910;6.792;2023-05-02T05:38:35;99303.84;;;9.51;100.00
26807;BME280;14380;49.910;6.792;2023-05-02T05:41:03;99305.97;;;9.64;100.00
26807;BME280;14380;49.910;6.792;2023-05-02T05:43:32;99315.53;;;9.66;100.00
26807;BME280;14380;49.910;6.792;2023-05-02T05:45:58;99327.06;;;9.64;100.00
26807;BME280;14380;49.910;6.792;2023-05-02T05:48:25;99326.16;;;9.86;100.00
26807;BME280;14380;49.910;6.792;2023-05-02T05:50:52;99331.09;;;9.93;100.00
26807;BME280;14380;49.910;6.792;2023-05-02T05:53:18;99330.47;;;9.45;100.00
26807;BME280;14380;49.910;6.792;2023-05-02T05:55:46;99333.19;;;9.21;100.00
26807;BME280;14380;49.910;6.792;2023-05-02T05:58:14;99337.38;;;9.48;100.00
26807;BME280;14380;49.910;6.792;2023-05-02T06:00:40;99342.75;;;9.67;100.00
26807;BME280;14380;49.910;6.792;2023-05-02T06:03:07;99347.38;;;9.82;100.00
26807;BME280;14380;49.910;6.792;2023-05-02T06:05:33;99349.56;;;9.93;100.00
26807;BME280;14380;49.910;6.792;2023-05-02T06:08:00;99350.56;;;9.91;100.00
26807;BME280;14380;49.910;6.792;2023-05-02T06:10:27;99347.69;;;9.75;100.00
26807;BME280;14380;49.910;6.792;2023-05-02T06:12:53;99347.69;;;9.75;100.00
26807;BME280;14380;49.910;6.792;2023-05-02T06:15:21;99356.53;;;9.94;100.00
26807;BME280;14380;49.910;6.792;2023-05-02T06:17:49;99351.72;;;10.04;100.00
26807;BME280;14380;49.910;6.792;2023-05-02T06:20:16;99356.81;;;10.09;100.00
26807;BME280;14380;49.910;6.792;2023-05-02T06:22:42;99360.72;;;10.19;100.00
26807;BME280;14380;49.910;6.792;2023-05-02T06:25:09;99361.53;;;10.21;100.00
26807;BME280;14380;49.910;6.792;2023-05-02T06:27:35;99357.66;;;10.30;100.00
26807;BME280;14380;49.910;6.792;2023-05-02T06:30:02;99358.75;;;10.45;100.00
26807;BME280;14380;49.910;6.792;2023-05-02T06:32:30;99367.13;;;10.74;100.00
26807;BME280;14380;49.910;6.792;2023-05-02T06:34:57;99366.94;;;10.98;100.00
26807;BME280;14380;49.910;6.792;2023-05-02T06:37:24;99367.63;;;10.44;100.00
26807;BME280;14380;49.910;6.792;2023-05-02T06:39:50;99372.53;;;10.52;100.00
26807;BME280;14380;49.910;6.792;2023-05-02T06:42:17;99376.47;;;10.62;100.00
26807;BME280;14380;49.910;6.792;2023-05-02T06:44:43;99378.44;;;10.78;100.00
26807;BME280;14380;49.910;6.792;2023-05-02T06:47:10;99384.41;;;10.62;100.00
26807;BME280;14380;49.910;6.792;2023-05-02T06:49:38;99381.69;;;10.83;100.00
26807;BME280;14380;49.910;6.792;2023-05-02T06:52:04;99383.84;;;11.13;100.00
26807;BME280;14380;49.910;6.792;2023-05-02T06:54:31;99386.50;;;11.30;100.00
26807;BME280;14380;49.910;6.792;2023-05-02T06:56:58;99382.53;;;11.58;100.00
26807;BME280;14380;49.910;6.792;2023-05-02T06:59:25;99390.81;;;11.70;100.00
26807;BME280;14380;49.910;6.792;2023-05-02T07:01:51;99387.19;;;11.71;100.00
26807;BME280;14380;49.910;6.792;2023-05-02T07:04:18;99385.50;;;11.70;100.00
26807;BME280;14380;49.910;6.792;2023-05-02T07:06:46;99387.78;;;12.13;100.00
26807;BME280;14380;49.910;6.792;2023-05-02T07:09:12;99393.06;;;12.30;100.00
26807;BME280;14380;49.910;6.792;2023-05-02T07:11:39;99389.25;;;12.18;100.00
26807;BME280;14380;49.910;6.792;2023-05-02T07:14:05;99394.00;;;12.29;100.00
26807;BME280;14380;49.910;6.792;2023-05-02T07:16:32;99408.09;;;12.30;100.00
26807;BME280;14380;49.910;6.792;2023-05-02T07:18:59;99407.69;;;12.71;100.00
26807;BME280;14380;49.910;6.792;2023-05-02T07:21:25;99403.97;;;13.07;100.00
26807;BME280;14380;49.910;6.792;2023-05-02T07:23:53;99402.97;;;13.10;100.00
26807;BME280;14380;49.910;6.792;2023-05-02T07:26:21;99412.78;;;13.24;100.00
26807;BME280;14380;49.910;6.792;2023-05-02T07:28:49;99409.72;;;13.00;100.00
26807;BME280;14380;49.910;6.792;2023-05-02T07:31:16;99413.09;;;12.70;100.00
26807;BME280;14380;49.910;6.792;2023-05-02T07:33:42;99420.91;;;12.89;100.00
26807;BME280;14380;49.910;6.792;2023-05-02T07:36:09;99417.09;;;13.43;100.00
26807;BME280;14380;49.910;6.792;2023-05-02T07:38:35;99419.22;;;13.52;100.00
26807;BME280;14380;49.910;6.792;2023-05-02T07:41:03;99421.38;;;13.92;100.00
26807;BME280;14380;49.910;6.792;2023-05-02T07:43:30;99416.34;;;13.71;100.00
26807;BME280;14380;49.910;6.792;2023-05-02T07:46:03;99424.06;;;13.28;100.00
26807;BME280;14380;49.910;6.792;2023-05-02T07:48:30;99427.00;;;13.07;100.00
26807;BME280;14380;49.910;6.792;2023-05-02T07:51:04;99426.34;;;13.51;100.00
26807;BME280;14380;49.910;6.792;2023-05-02T07:53:31;99429.38;;;13.76;100.00
26807;BME280;14380;49.910;6.792;2023-05-02T07:56:04;99422.31;;;14.21;100.00
26807;BME280;14380;49.910;6.792;2023-05-02T07:58:31;99428.63;;;14.04;100.00
26807;BME280;14380;49.910;6.792;2023-05-02T08:00:57;99416.59;;;14.13;100.00
26807;BME280;14380;49.910;6.792;2023-05-02T08:03:24;99423.16;;;14.07;99.66
26807;BME280;14380;49.910;6.792;2023-05-02T08:05:51;99429.56;;;14.63;100.00
26807;BME280;14380;49.910;6.792;2023-05-02T08:08:17;99426.19;;;15.04;100.00
26807;BME280;14380;49.910;6.792;2023-05-02T08:10:44;99431.50;;;14.90;100.00
26807;BME280;14380;49.910;6.792;2023-05-02T08:13:12;99429.38;;;14.51;98.75
26807;BME280;14380;49.910;6.792;2023-05-02T08:15:38;99437.84;;;14.13;97.19
26807;BME280;14380;49.910;6.792;2023-05-02T08:18:05;99441.81;;;14.06;100.00
26807;BME280;14380;49.910;6.792;2023-05-02T08:20:31;99445.16;;;13.93;100.00
26807;BME280;14380;49.910;6.792;2023-05-02T08:22:58;99439.59;;;14.43;100.00
26807;BME280;14380;49.910;6.792;2023-05-02T08:25:25;99442.25;;;14.28;100.00
26807;BME280;14380;49.910;6.792;2023-05-02T08:27:51;99448.78;;;14.23;98.97
26807;BME280;14380;49.910;6.792;2023-05-02T08:30:19;99449.56;;;14.39;100.00
26807;BME280;14380;49.910;6.792;2023-05-02T08:32:46;99448.34;;;14.45;100.00
26807;BME280;14380;49.910;6.792;2023-05-02T08:35:12;99456.16;;;14.18;100.00
26807;BME280;14380;49.910;6.792;2023-05-02T08:37:39;99450.41;;;14.25;99.51
26807;BME280;14380;49.910;6.792;2023-05-02T08:40:10;99447.13;;;14.51;97.61
26807;BME280;14380;49.910;6.792;2023-05-02T08:42:40;99449.88;;;14.49;99.30
26807;BME280;14380;49.910;6.792;2023-05-02T08:45:08;99448.59;;;15.00;96.78
26807;BME280;14380;49.910;6.792;2023-05-02T08:47:37;99446.00;;;15.27;92.77
26807;BME280;14380;49.910;6.792;2023-05-02T08:50:06;99451.72;;;15.07;97.70
26807;BME280;14380;49.910;6.792;2023-05-02T08:52:34;99452.78;;;15.04;93.01
26807;BME280;14380;49.910;6.792;2023-05-02T08:55:01;99455.53;;;14.88;94.33
26807;BME280;14380;49.910;6.792;2023-05-02T08:57:28;99449.19;;;14.76;93.74
26807;BME280;14380;49.910;6.792;2023-05-02T08:59:55;99452.19;;;14.99;95.16
26807;BME280;14380;49.910;6.792;2023-05-02T09:02:29;99454.97;;;14.97;94.56
26807;BME280;14380;49.910;6.792;2023-05-02T09:05:05;99454.50;;;14.76;95.76
26807;BME280;14380;49.910;6.792;2023-05-02T09:07:43;99461.47;;;14.63;92.27
26807;BME280;14380;49.910;6.792;2023-05-02T09:10:10;99454.00;;;14.69;93.95
26807;BME280;14380;49.910;6.792;2023-05-02T09:12:37;99459.97;;;14.87;93.36
26807;BME280;14380;49.910;6.792;2023-05-02T09:15:14;99465.50;;;14.99;91.81
26807;BME280;14380;49.910;6.792;2023-05-02T09:17:42;99472.78;;;15.10;92.09
26807;BME280;14380;49.910;6.792;2023-05-02T09:20:12;99467.28;;;15.13;91.80
26807;BME280;14380;49.910;6.792;2023-05-02T09:22:46;99467.50;;;14.81;95.29
26807;BME280;14380;49.910;6.792;2023-05-02T09:25:13;99472.53;;;15.00;90.94
26807;BME280;14380;49.910;6.792;2023-05-02T09:27:51;99471.09;;;15.65;92.06
26807;BME280;14380;49.910;6.792;2023-05-02T09:30:20;99458.72;;;16.19;90.95
26807;BME280;14380;49.910;6.792;2023-05-02T09:32:47;99466.13;;;16.01;91.78
26807;BME280;14380;49.910;6.792;2023-05-02T09:35:17;99475.88;;;15.45;90.20
26807;BME280;14380;49.910;6.792;2023-05-02T09:37:49;99480.00;;;15.22;95.58
26807;BME280;14380;49.910;6.792;2023-05-02T09:40:16;99480.69;;;15.11;89.28
26807;BME280;14380;49.910;6.792;2023-05-02T09:42:43;99482.69;;;14.93;89.72
26807;BME280;14380;49.910;6.792;2023-05-02T09:45:18;99489.13;;;15.04;90.76
26807;BME280;14380;49.910;6.792;2023-05-02T09:47:46;99491.72;;;15.05;89.92
26807;BME280;14380;49.910;6.792;2023-05-02T09:50:31;99495.63;;;14.99;91.10
26807;BME280;14380;49.910;6.792;2023-05-02T09:53:02;99499.03;;;14.56;89.03
26807;BME280;14380;49.910;6.792;2023-05-02T09:55:29;99508.72;;;14.57;89.51
26807;BME280;14380;49.910;6.792;2023-05-02T09:57:56;99512.47;;;14.08;91.98
26807;BME280;14380;49.910;6.792;2023-05-02T10:00:37;99505.19;;;14.73;91.89
26807;BME280;14380;49.910;6.792;2023-05-02T10:03:05;99511.63;;;14.83;92.20
26807;BME280;14380;49.910;6.792;2023-05-02T10:05:35;99506.91;;;14.74;91.19
26807;BME280;14380;49.910;6.792;2023-05-02T10:08:03;99511.47;;;15.15;92.04
26807;BME280;14380;49.910;6.792;2023-05-02T10:10:32;99513.69;;;15.65;89.77
26807;BME280;14380;49.910;6.792;2023-05-02T10:12:59;99510.91;;;15.67;90.04
26807;BME280;14380;49.910;6.792;2023-05-02T10:15:28;99503.16;;;16.18;92.11
26807;BME280;14380;49.910;6.792;2023-05-02T10:17:57;99503.63;;;15.98;89.75
26807;BME280;14380;49.910;6.792;2023-05-02T10:20:29;99495.56;;;16.53;87.80
26807;BME280;14380;49.910;6.792;2023-05-02T10:22:59;99495.19;;;16.98;87.56
26807;BME280;14380;49.910;6.792;2023-05-02T10:25:26;99500.13;;;16.50;81.43
26807;BME280;14380;49.910;6.792;2023-05-02T10:27:55;99497.97;;;15.89;83.94
26807;BME280;14380;49.910;6.792;2023-05-02T10:30:22;99503.25;;;15.62;85.90
26807;BME280;14380;49.910;6.792;2023-05-02T10:32:50;99517.25;;;15.22;86.74
26807;BME280;14380;49.910;6.792;2023-05-02T10:35:18;99514.41;;;15.25;87.15
26807;BME280;14380;49.910;6.792;2023-05-02T10:37:46;99517.72;;;15.00;85.44
26807;BME280;14380;49.910;6.792;2023-05-02T10:40:15;99518.59;;;15.00;87.52
26807;BME280;14380;49.910;6.792;2023-05-02T10:42:44;99513.47;;;14.97;85.67
26807;BME280;14380;49.910;6.792;2023-05-02T10:45:12;99511.75;;;14.96;87.09
26807;BME280;14380;49.910;6.792;2023-05-02T10:48:15;99506.63;;;15.37;87.56
26807;BME280;14380;49.910;6.792;2023-05-02T10:50:44;99501.22;;;16.61;83.98
26807;BME280;14380;49.910;6.792;2023-05-02T10:53:28;99490.63;;;16.59;81.42
26807;BME280;14380;49.910;6.792;2023-05-02T10:56:10;99480.22;;;16.82;79.08
26807;BME280;14380;49.910;6.792;2023-05-02T10:58:37;99477.84;;;17.16;81.29
26807;BME280;14380;49.910;6.792;2023-05-02T11:01:32;99474.03;;;17.82;78.67
26807;BME280;14380;49.910;6.792;2023-05-02T11:04:04;99480.63;;;16.76;75.70
26807;BME280;14380;49.910;6.792;2023-05-02T11:06:32;99476.47;;;17.61;75.56
26807;BME280;14380;49.910;6.792;2023-05-02T11:09:33;99479.00;;;17.25;76.85
26807;BME280;14380;49.910;6.792;2023-05-02T11:12:01;99481.69;;;17.12;76.00
26807;BME280;14380;49.910;6.792;2023-05-02T11:14:48;99476.88;;;16.78;79.58
26807;BME280;14380;49.910;6.792;2023-05-02T11:17:16;99481.72;;;16.73;77.32
26807;BME280;14380;49.910;6.792;2023-05-02T11:22:51;99475.50;;;16.86;76.57
26807;BME280;14380;49.910;6.792;2023-05-02T11:25:32;99474.59;;;17.00;79.13
26807;BME280;14380;49.910;6.792;2023-05-02T11:28:01;99473.28;;;17.56;74.07
26807;BME280;14380;49.910;6.792;2023-05-02T11:30:36;99482.84;;;17.34;77.02
26807;BME280;14380;49.910;6.792;2023-05-02T11:33:27;99484.88;;;16.53;77.02
26807;BME280;14380;49.910;6.792;2023-05-02T11:35:54;99483.06;;;16.92;77.79
26807;BME280;14380;49.910;6.792;2023-05-02T11:38:22;99473.59;;;17.01;74.33
26807;BME280;14380;49.910;6.792;2023-05-02T11:40:54;99483.63;;;17.60;77.03
26807;BME280;14380;49.910;6.792;2023-05-02T11:43:23;99470.69;;;17.30;69.65
26807;BME280;14380;49.910;6.792;2023-05-02T11:45:50;99480.50;;;17.29;68.06
26807;BME280;14380;49.910;6.792;2023-05-02T11:48:18;99479.00;;;17.38;71.49
26807;BME280;14380;49.910;6.792;2023-05-02T11:50:48;99477.34;;;17.48;71.21
26807;BME280;14380;49.910;6.792;2023-05-02T11:53:17;99464.59;;;18.49;67.03
26807;BME280;14380;49.910;6.792;2023-05-02T11:55:45;99462.16;;;18.46;69.34
26807;BME280;14380;49.910;6.792;2023-05-02T11:58:13;99474.75;;;17.84;67.78
26807;BME280;14380;49.910;6.792;2023-05-02T12:00:43;99474.56;;;16.74;68.69
26807;BME280;14380;49.910;6.792;2023-05-02T12:03:20;99480.22;;;17.08;72.10
26807;BME280;14380;49.910;6.792;2023-05-02T12:05:48;99481.84;;;16.98;71.48
26807;BME280;14380;49.910;6.792;2023-05-02T12:08:19;99485.97;;;16.50;70.82
26807;BME280;14380;49.910;6.792;2023-05-02T12:10:46;99488.41;;;16.53;70.75
26807;BME280;14380;49.910;6.792;2023-05-02T12:13:13;99491.50;;;16.47;73.02
26807;BME280;14380;49.910;6.792;2023-05-02T12:15:39;99480.00;;;16.98;71.11
26807;BME280;14380;49.910;6.792;2023-05-02T12:18:08;99503.19;;;16.31;72.99
26807;BME280;14380;49.910;6.792;2023-05-02T12:20:35;99495.75;;;16.37;72.44
26807;BME280;14380;49.910;6.792;2023-05-02T12:23:03;99502.63;;;16.26;73.45
26807;BME280;14380;49.910;6.792;2023-05-02T12:25:36;99513.66;;;16.34;71.75
26807;BME280;14380;49.910;6.792;2023-05-02T12:28:03;99500.13;;;16.38;73.27
26807;BME280;14380;49.910;6.792;2023-05-02T12:30:30;99507.28;;;16.63;71.05
26807;BME280;14380;49.910;6.792;2023-05-02T12:32:58;99511.59;;;16.91;69.49
26807;BME280;14380;49.910;6.792;2023-05-02T12:35:27;99510.28;;;16.84;70.28
26807;BME280;14380;49.910;6.792;2023-05-02T12:38:06;99512.41;;;16.79;70.41
26807;BME280;14380;49.910;6.792;2023-05-02T12:40:33;99511.88;;;16.74;69.10
26807;BME280;14380;49.910;6.792;2023-05-02T12:43:01;99500.81;;;18.18;74.89
26807;BME280;14380;49.910;6.792;2023-05-02T12:45:32;99488.88;;;18.46;67.82
26807;BME280;14380;49.910;6.792;2023-05-02T12:47:59;99495.53;;;18.99;65.09
26807;BME280;14380;49.910;6.792;2023-05-02T12:50:37;99489.00;;;19.26;64.61
26807;BME280;14380;49.910;6.792;2023-05-02T12:53:04;99492.50;;;19.60;61.98
26807;BME280;14380;49.910;6.792;2023-05-02T12:55:31;99488.59;;;19.53;64.26
26807;BME280;14380;49.910;6.792;2023-05-02T12:58:01;99483.81;;;19.68;62.12
26807;BME280;14380;49.910;6.792;2023-05-02T13:00:30;99475.63;;;19.93;61.87
26807;BME280;14380;49.910;6.792;2023-05-02T13:02:57;99476.13;;;20.61;67.15
26807;BME280;14380;49.910;6.792;2023-05-02T13:05:23;99493.81;;;18.86;61.24
26807;BME280;14380;49.910;6.792;2023-05-02T13:07:52;99492.84;;;18.76;59.71
26807;BME280;14380;49.910;6.792;2023-05-02T13:10:20;99495.25;;;18.68;64.02